createdAt,value
2019-01-19T00:02:19.549Z,8.80
2019-01-19T00:05:25.718Z,7.90
2019-01-19T00:08:26.965Z,8.03
2019-01-19T00:11:27.870Z,8.30
2019-01-19T00:14:59.586Z,7.53
2019-01-19T00:18:35.025Z,7.73
2019-01-19T00:21:35.840Z,6.97
2019-01-19T00:24:46.832Z,7.57
2019-01-19T00:27:52.384Z,7.77
2019-01-19T00:30:35.275Z,7.77
2019-01-19T00:34:01.405Z,7.67
2019-01-19T00:36:45.700Z,7.93
2019-01-19T00:40:05.167Z,8.63
2019-01-19T00:43:07.357Z,8.37
2019-01-19T00:46:28.789Z,11.47
2019-01-19T00:49:14.866Z,10.17
2019-01-19T00:52:30.717Z,9.23
2019-01-19T00:55:25.987Z,9.63
2019-01-19T00:58:52.210Z,8.90
2019-01-19T01:01:56.857Z,9.30
2019-01-19T01:04:49.649Z,9.50
2019-01-19T01:08:21.558Z,9.77
2019-01-19T01:11:11.084Z,9.47
2019-01-19T01:14:27.582Z,10.00
2019-01-19T01:17:25.971Z,9.17
2019-01-19T01:20:29.815Z,9.17
2019-01-19T01:23:12.419Z,8.63
2019-01-19T01:26:21.837Z,8.13
2019-01-19T01:29:27.118Z,7.97
2019-01-19T01:32:18.074Z,7.43
2019-01-19T01:35:20.071Z,6.70
2019-01-19T01:38:04.824Z,6.53
2019-01-19T01:41:13.980Z,7.17
2019-01-19T01:44:17.639Z,6.23
2019-01-19T01:47:43.068Z,6.90
2019-01-19T01:50:49.429Z,6.63
2019-01-19T01:53:47.901Z,6.53
2019-01-19T01:56:22.830Z,6.77
2019-01-19T01:59:38.599Z,6.40
2019-01-19T02:02:58.517Z,6.03
2019-01-19T02:05:45.057Z,5.93
2019-01-19T02:08:51.776Z,6.07
2019-01-19T02:11:44.526Z,5.80
2019-01-19T02:15:06.154Z,6.50
2019-01-19T02:18:24.472Z,6.00
2019-01-19T02:21:31.438Z,5.90
2019-01-19T02:24:57.622Z,5.93
2019-01-19T02:28:05.882Z,5.63
2019-01-19T02:31:21.687Z,5.93
2019-01-19T02:34:33.577Z,5.80
2019-01-19T02:37:55.112Z,6.23
2019-01-19T02:40:59.421Z,5.77
2019-01-19T02:44:10.647Z,6.23
2019-01-19T02:47:10.606Z,6.97
2019-01-19T02:50:00.886Z,6.30
2019-01-19T02:53:14.654Z,6.10
2019-01-19T02:56:10.030Z,5.80
2019-01-19T02:59:20.000Z,6.10
2019-01-19T03:02:03.002Z,6.30
2019-01-19T03:05:24.377Z,7.00
2019-01-19T03:08:41.643Z,5.73
2019-01-19T03:11:49.783Z,5.67
2019-01-19T03:15:03.941Z,7.23
2019-01-19T03:18:17.612Z,6.35
2019-01-19T03:21:38.175Z,6.90
2019-01-19T03:24:57.827Z,6.67
2019-01-19T03:28:17.470Z,6.93
2019-01-19T03:31:32.402Z,6.90
2019-01-19T03:34:44.581Z,7.00
2019-01-19T03:37:56.211Z,7.10
2019-01-19T03:41:30.913Z,6.37
2019-01-19T03:44:21.082Z,7.37
2019-01-19T03:47:28.968Z,7.80
2019-01-19T03:50:41.779Z,7.83
2019-01-19T03:54:00.476Z,7.97
2019-01-19T03:56:49.275Z,7.83
2019-01-19T03:59:46.519Z,8.87
2019-01-19T04:02:59.952Z,8.07
2019-01-19T04:06:17.752Z,8.93
2019-01-19T04:09:30.314Z,8.23
2019-01-19T04:12:38.249Z,7.60
2019-01-19T04:16:01.773Z,8.40
2019-01-19T04:19:04.484Z,7.90
2019-01-19T04:21:54.291Z,7.73
2019-01-19T04:24:42.510Z,8.00
2019-01-19T04:27:16.719Z,8.50
2019-01-19T04:29:51.831Z,8.75
2019-01-19T04:32:26.717Z,8.70
2019-01-19T04:35:01.635Z,7.83
2019-01-19T04:37:36.388Z,8.63
2019-01-19T04:40:12.731Z,8.43
2019-01-19T04:42:48.154Z,8.30
2019-01-19T04:45:22.393Z,7.55
2019-01-19T04:47:57.088Z,8.55
2019-01-19T04:50:31.359Z,8.20
2019-01-19T04:53:06.375Z,8.25
2019-01-19T04:55:40.842Z,8.53
2019-01-19T04:58:15.612Z,8.67
2019-01-19T05:00:50.090Z,8.33
2019-01-19T05:03:24.461Z,8.35
2019-01-19T05:05:58.881Z,8.27
2019-01-19T05:08:32.950Z,8.53
2019-01-19T05:11:07.630Z,8.90
2019-01-19T05:13:42.298Z,8.40
2019-01-19T05:16:16.576Z,8.13
2019-01-19T05:18:51.050Z,9.10
2019-01-19T05:21:25.439Z,8.30
2019-01-19T05:24:00.061Z,8.30
2019-01-19T05:26:34.356Z,8.60
2019-01-19T05:29:09.012Z,8.33
2019-01-19T05:31:43.263Z,8.05
2019-01-19T05:34:17.328Z,8.53
2019-01-19T05:36:51.914Z,8.35
2019-01-19T05:39:26.691Z,8.90
2019-01-19T05:42:00.814Z,8.75
2019-01-19T05:44:35.379Z,8.78
2019-01-19T05:47:10.255Z,8.78
2019-01-19T05:49:44.824Z,8.30
2019-01-19T05:52:19.014Z,8.58
2019-01-19T05:54:54.000Z,8.23
2019-01-19T05:57:28.664Z,8.83
2019-01-19T06:00:03.643Z,8.80
2019-01-19T06:02:38.676Z,8.00
2019-01-19T06:05:13.008Z,8.93
2019-01-19T06:07:47.480Z,8.73
2019-01-19T06:10:22.271Z,8.88
2019-01-19T06:12:58.630Z,8.67
2019-01-19T06:15:33.114Z,8.95
2019-01-19T06:18:07.714Z,9.13
2019-01-19T06:20:42.249Z,8.33
2019-01-19T06:23:17.184Z,8.45
2019-01-19T06:25:51.438Z,9.03
2019-01-19T06:28:26.244Z,8.80
2019-01-19T06:31:00.632Z,9.03
2019-01-19T06:33:34.847Z,9.38
2019-01-19T06:36:09.361Z,9.30
2019-01-19T06:38:44.156Z,8.80
2019-01-19T06:41:18.642Z,8.33
2019-01-19T06:43:53.347Z,8.93
2019-01-19T06:46:28.278Z,8.83
2019-01-19T06:49:02.762Z,9.20
2019-01-19T06:51:37.082Z,9.68
2019-01-19T06:54:12.273Z,9.23
2019-01-19T06:56:47.158Z,9.58
2019-01-19T06:59:21.586Z,10.08
2019-01-19T07:01:55.350Z,9.60
2019-01-19T07:04:29.722Z,9.38
2019-01-19T07:07:04.157Z,9.78
2019-01-19T07:09:40.076Z,9.53
2019-01-19T07:12:16.912Z,9.68
2019-01-19T07:14:51.920Z,10.18
2019-01-19T07:17:26.116Z,9.63
2019-01-19T07:20:01.310Z,9.88
2019-01-19T07:22:35.595Z,10.15
2019-01-19T07:25:10.404Z,10.10
2019-01-19T07:27:44.747Z,10.13
2019-01-19T07:30:20.227Z,10.95
2019-01-19T07:32:54.428Z,10.45
2019-01-19T07:35:28.970Z,9.73
2019-01-19T07:38:03.845Z,10.13
2019-01-19T07:40:38.663Z,10.00
2019-01-19T07:43:15.937Z,11.10
2019-01-19T07:45:50.037Z,10.63
2019-01-19T07:48:24.221Z,10.25
2019-01-19T07:50:59.063Z,10.20
2019-01-19T07:53:33.800Z,10.25
2019-01-19T07:56:09.254Z,10.18
2019-01-19T07:58:44.060Z,9.90
2019-01-19T08:01:18.713Z,9.78
2019-01-19T08:03:53.967Z,9.83
2019-01-19T08:06:28.561Z,10.35
2019-01-19T08:09:03.264Z,10.18
2019-01-19T08:11:38.086Z,9.73
2019-01-19T08:14:12.332Z,10.40
2019-01-19T08:16:46.586Z,10.13
2019-01-19T08:19:21.036Z,10.35
2019-01-19T08:21:56.234Z,10.60
2019-01-19T08:24:30.687Z,10.28
2019-01-19T08:27:05.417Z,10.13
2019-01-19T08:29:40.620Z,9.95
2019-01-19T08:32:15.526Z,10.45
2019-01-19T08:34:50.547Z,10.20
2019-01-19T08:37:25.093Z,10.58
2019-01-19T08:39:59.864Z,10.20
2019-01-19T08:42:34.682Z,9.63
2019-01-19T08:45:09.667Z,9.93
2019-01-19T08:47:44.011Z,9.78
2019-01-19T08:50:24.909Z,10.10
2019-01-19T08:52:59.264Z,10.15
2019-01-19T08:55:34.132Z,10.53
2019-01-19T08:58:08.752Z,10.18
2019-01-19T09:00:43.510Z,9.73
2019-01-19T09:03:17.927Z,10.18
2019-01-19T09:05:53.104Z,9.70
2019-01-19T09:08:27.865Z,9.60
2019-01-19T09:11:03.828Z,9.65
2019-01-19T09:13:38.432Z,10.35
2019-01-19T09:16:24.381Z,9.65
2019-01-19T09:18:58.821Z,9.83
2019-01-19T09:21:33.509Z,10.48
2019-01-19T09:24:29.469Z,9.93
2019-01-19T09:27:03.741Z,9.45
2019-01-19T09:29:38.516Z,9.65
2019-01-19T09:32:13.543Z,10.00
2019-01-19T09:34:47.977Z,9.98
2019-01-19T09:37:22.649Z,9.08
2019-01-19T09:39:59.414Z,9.83
2019-01-19T09:42:34.486Z,10.05
2019-01-19T09:45:09.484Z,8.93
2019-01-19T09:47:44.370Z,9.45
2019-01-19T09:50:19.685Z,9.43
2019-01-19T09:52:54.266Z,9.98
2019-01-19T09:55:28.819Z,10.28
2019-01-19T09:58:03.897Z,9.73
2019-01-19T10:00:45.426Z,9.45
2019-01-19T10:03:14.817Z,10.25
2019-01-19T10:05:49.631Z,9.63
2019-01-19T10:08:24.337Z,9.90
2019-01-19T10:10:59.291Z,9.70
2019-01-19T10:13:34.009Z,9.03
2019-01-19T10:16:09.923Z,9.55
2019-01-19T10:18:44.261Z,9.83
2019-01-19T10:21:25.980Z,9.88
2019-01-19T10:24:00.786Z,9.53
2019-01-19T10:26:42.319Z,9.13
2019-01-19T10:29:17.590Z,9.38
2019-01-19T10:31:52.454Z,9.60
2019-01-19T10:34:27.132Z,9.65
2019-01-19T10:37:01.483Z,9.10
2019-01-19T10:39:36.185Z,9.83
2019-01-19T10:42:10.868Z,9.80
2019-01-19T10:44:45.298Z,9.43
2019-01-19T10:47:20.542Z,9.15
2019-01-19T10:49:55.003Z,9.58
2019-01-19T10:52:30.230Z,9.78
2019-01-19T10:55:04.963Z,9.30
2019-01-19T10:57:39.932Z,9.90
2019-01-19T11:00:19.136Z,9.43
2019-01-19T11:02:53.724Z,9.50
2019-01-19T11:05:29.992Z,9.95
2019-01-19T11:08:05.103Z,9.18
2019-01-19T11:10:39.814Z,10.03
2019-01-19T11:13:14.861Z,9.70
2019-01-19T11:15:49.280Z,9.63
2019-01-19T11:18:30.972Z,9.73
2019-01-19T11:21:05.605Z,9.95
2019-01-19T11:23:40.569Z,10.00
2019-01-19T11:26:15.578Z,10.15
2019-01-19T11:28:50.989Z,10.80
2019-01-19T11:31:26.225Z,10.28
2019-01-19T11:34:01.038Z,10.80
2019-01-19T11:36:35.711Z,11.43
2019-01-19T11:39:12.615Z,11.28
2019-01-19T11:41:47.220Z,10.98
2019-01-19T11:44:22.070Z,11.88
2019-01-19T11:46:56.678Z,10.10
2019-01-19T11:49:31.793Z,11.38
2019-01-19T11:52:06.400Z,10.68
2019-01-19T11:54:41.251Z,11.22
2019-01-19T11:57:15.985Z,11.35
2019-01-19T11:59:50.413Z,11.48
2019-01-19T12:02:25.187Z,11.70
2019-01-19T12:04:59.930Z,11.60
2019-01-19T12:07:34.990Z,11.18
2019-01-19T12:10:10.744Z,11.30
2019-01-19T12:12:45.927Z,11.50
2019-01-19T12:15:20.472Z,11.48
2019-01-19T12:17:55.061Z,10.65
2019-01-19T12:20:40.818Z,11.57
2019-01-19T12:23:15.312Z,11.33
2019-01-19T12:25:49.772Z,12.23
2019-01-19T12:28:24.748Z,11.70
2019-01-19T12:30:59.225Z,11.40
2019-01-19T12:33:34.034Z,10.90
2019-01-19T12:36:08.318Z,10.85
2019-01-19T12:38:42.681Z,11.17
2019-01-19T12:41:17.614Z,11.30
2019-01-19T12:43:52.249Z,11.37
2019-01-19T12:46:26.913Z,11.20
2019-01-19T12:49:01.326Z,11.20
2019-01-19T12:51:36.288Z,11.27
2019-01-19T12:54:10.955Z,11.47
2019-01-19T12:56:45.355Z,11.07
2019-01-19T12:59:20.535Z,11.13
2019-01-19T13:01:55.276Z,10.50
2019-01-19T13:04:29.555Z,11.00
2019-01-19T13:07:14.534Z,11.60
2019-01-19T13:10:02.678Z,10.90
2019-01-19T13:12:56.857Z,11.00
2019-01-19T13:16:13.714Z,11.30
2019-01-19T13:19:32.710Z,10.33
2019-01-19T13:22:31.818Z,11.00
2019-01-19T13:25:40.434Z,10.80
2019-01-19T13:28:55.895Z,10.30
2019-01-19T13:31:53.981Z,10.67
2019-01-19T13:35:11.284Z,11.13
2019-01-19T13:38:16.391Z,9.73
2019-01-19T13:41:33.377Z,10.50
2019-01-19T13:44:37.811Z,10.33
2019-01-19T13:47:38.525Z,10.33
2019-01-19T13:50:41.312Z,11.10
2019-01-19T13:53:51.174Z,11.10
2019-01-19T13:56:47.553Z,10.40
2019-01-19T14:00:07.920Z,11.50
2019-01-19T14:03:40.120Z,11.13
2019-01-19T14:06:40.604Z,11.07
2019-01-19T14:09:55.801Z,11.67
2019-01-19T14:13:16.390Z,11.60
2019-01-19T14:16:14.264Z,12.00
2019-01-19T14:19:43.349Z,13.27
2019-01-19T14:22:55.870Z,13.03
2019-01-19T14:26:01.371Z,12.57
2019-01-19T14:29:10.877Z,12.63
2019-01-19T14:32:37.894Z,13.30
2019-01-19T14:35:48.691Z,13.57
2019-01-19T14:38:56.902Z,14.07
2019-01-19T14:42:11.363Z,14.30
2019-01-19T14:45:11.568Z,13.90
2019-01-19T14:47:57.442Z,13.60
2019-01-19T14:51:15.767Z,14.97
2019-01-19T14:54:10.095Z,15.27
2019-01-19T14:56:54.132Z,14.55
2019-01-19T15:00:15.678Z,15.50
2019-01-19T15:03:33.297Z,15.87
2019-01-19T15:07:02.727Z,15.80
2019-01-19T15:10:09.677Z,15.53
2019-01-19T15:13:19.552Z,14.97
2019-01-19T15:16:25.143Z,16.23
2019-01-19T15:19:38.953Z,15.93
2019-01-19T15:22:41.937Z,15.77
2019-01-19T15:26:13.838Z,16.83
2019-01-19T15:29:06.634Z,16.53
2019-01-19T15:32:17.878Z,16.93
2019-01-19T15:35:40.761Z,17.65
2019-01-19T15:38:51.348Z,17.27
2019-01-19T15:41:57.536Z,16.35
2019-01-19T15:44:42.675Z,17.30
2019-01-19T15:48:02.611Z,16.77
2019-01-19T15:51:14.819Z,18.10
2019-01-19T15:54:16.864Z,17.92
2019-01-19T15:57:27.376Z,17.80
2019-01-19T16:00:31.347Z,18.00
2019-01-19T16:03:47.904Z,17.97
2019-01-19T16:06:37.372Z,18.27
2019-01-19T16:09:31.663Z,17.15
2019-01-19T16:12:46.013Z,17.67
2019-01-19T16:16:08.520Z,18.33
2019-01-19T16:19:04.108Z,17.13
2019-01-19T16:21:54.808Z,18.97
2019-01-19T16:25:17.255Z,19.20
2019-01-19T16:28:16.513Z,17.83
2019-01-19T16:31:25.505Z,18.17
2019-01-19T16:34:32.162Z,18.07
2019-01-19T16:37:33.180Z,18.03
2019-01-19T16:40:33.426Z,17.93
2019-01-19T16:43:35.921Z,18.23
2019-01-19T16:46:34.507Z,17.87
2019-01-19T16:49:29.810Z,17.40
2019-01-19T16:52:45.590Z,18.00
2019-01-19T16:55:30.958Z,18.13
2019-01-19T16:58:16.275Z,18.40
2019-01-19T17:01:12.324Z,18.25
2019-01-19T17:04:28.750Z,18.70
2019-01-19T17:07:39.988Z,18.32
2019-01-19T17:11:00.925Z,18.95
2019-01-19T17:14:15.180Z,17.50
2019-01-19T17:17:27.500Z,18.00
2019-01-19T17:20:30.839Z,17.47
2019-01-19T17:23:34.673Z,17.65
2019-01-19T17:26:36.908Z,17.03
2019-01-19T17:29:39.471Z,17.77
2019-01-19T17:33:05.697Z,17.25
2019-01-19T17:36:11.933Z,17.33
2019-01-19T17:39:24.587Z,16.57
2019-01-19T17:42:42.426Z,15.93
2019-01-19T17:45:41.596Z,16.83
2019-01-19T17:48:44.660Z,17.13
2019-01-19T17:51:31.546Z,15.65
2019-01-19T17:54:59.658Z,17.27
2019-01-19T17:58:01.562Z,16.83
2019-01-19T18:01:37.376Z,17.10
2019-01-19T18:04:42.728Z,15.38
2019-01-19T18:07:51.303Z,15.60
2019-01-19T18:10:46.719Z,16.17
2019-01-19T18:13:47.730Z,15.87
2019-01-19T18:16:49.498Z,15.67
2019-01-19T18:20:02.691Z,15.65
2019-01-19T18:23:28.789Z,15.40
2019-01-19T18:26:47.662Z,15.13
2019-01-19T18:29:59.584Z,14.93
2019-01-19T18:33:14.323Z,15.20
2019-01-19T18:36:26.258Z,14.35
2019-01-19T18:39:32.296Z,15.43
2019-01-19T18:42:25.151Z,15.07
2019-01-19T18:45:30.779Z,14.87
2019-01-19T18:49:12.020Z,15.17
2019-01-19T18:52:26.502Z,14.73
2019-01-19T18:55:27.420Z,14.63
2019-01-19T18:58:53.494Z,14.73
2019-01-19T19:02:10.607Z,14.60
2019-01-19T19:05:28.607Z,14.13
2019-01-19T19:08:37.216Z,13.70
2019-01-19T19:12:04.455Z,13.47
2019-01-19T19:15:06.677Z,13.67
2019-01-19T19:18:35.367Z,13.32
2019-01-19T19:21:53.430Z,13.83
2019-01-19T19:24:46.480Z,13.47
2019-01-19T19:28:03.688Z,13.83
2019-01-19T19:30:59.228Z,13.72
2019-01-19T19:34:05.884Z,14.40
2019-01-19T19:37:07.982Z,13.73
2019-01-19T19:40:16.109Z,14.60
2019-01-19T19:43:47.441Z,13.58
2019-01-19T19:46:52.771Z,13.07
2019-01-19T19:50:06.281Z,13.90
2019-01-19T19:52:40.865Z,13.45
2019-01-19T19:55:12.029Z,14.10
2019-01-19T19:57:46.598Z,14.70
2019-01-19T20:00:21.786Z,14.40
2019-01-19T20:02:56.324Z,14.63
2019-01-19T20:05:31.178Z,14.13
2019-01-19T20:08:05.710Z,13.47
2019-01-19T20:10:40.087Z,13.17
2019-01-19T20:13:15.016Z,14.07
2019-01-19T20:15:49.551Z,14.10
2019-01-19T20:18:24.129Z,14.17
2019-01-19T20:20:58.634Z,15.43
2019-01-19T20:23:33.285Z,14.13
2019-01-19T20:26:14.821Z,14.33
2019-01-19T20:28:49.518Z,14.17
2019-01-19T20:31:24.445Z,14.67
2019-01-19T20:33:58.664Z,14.40
2019-01-19T20:36:33.776Z,15.07
2019-01-19T20:39:10.092Z,13.83
2019-01-19T20:41:44.728Z,14.05
2019-01-19T20:44:19.603Z,14.77
2019-01-19T20:46:54.093Z,13.93
2019-01-19T20:49:29.069Z,13.60
2019-01-19T20:52:03.790Z,13.97
2019-01-19T20:54:45.722Z,14.33
2019-01-19T20:57:20.261Z,13.77
2019-01-19T20:59:55.022Z,13.63
2019-01-19T21:02:29.680Z,13.70
2019-01-19T21:05:10.974Z,13.60
2019-01-19T21:07:52.153Z,14.27
2019-01-19T21:10:31.678Z,14.40
2019-01-19T21:13:09.473Z,14.43
2019-01-19T21:15:44.186Z,13.67
2019-01-19T21:18:24.675Z,13.77
2019-01-19T21:20:59.191Z,13.85
2019-01-19T21:23:41.398Z,14.50
2019-01-19T21:26:15.972Z,14.20
2019-01-19T21:28:57.563Z,13.83
2019-01-19T21:31:32.409Z,13.37
2019-01-19T21:34:06.758Z,13.70
2019-01-19T21:36:47.486Z,14.20
2019-01-19T21:39:22.451Z,14.10
2019-01-19T21:41:57.374Z,14.03
2019-01-19T21:44:31.761Z,14.10
2019-01-19T21:47:13.783Z,13.70
2019-01-19T21:49:48.649Z,13.80
2019-01-19T21:52:23.515Z,13.50
2019-01-19T21:54:58.645Z,13.87
2019-01-19T21:57:40.368Z,15.00
2019-01-19T22:00:17.240Z,14.27
2019-01-19T22:02:52.331Z,14.73
2019-01-19T22:05:27.008Z,13.60
2019-01-19T22:08:07.979Z,14.27
2019-01-19T22:10:46.397Z,14.03
2019-01-19T22:13:19.553Z,14.40
2019-01-19T22:16:00.956Z,14.13
2019-01-19T22:18:35.464Z,15.87
2019-01-19T22:21:10.369Z,15.63
2019-01-19T22:23:45.135Z,15.63
2019-01-19T22:26:29.504Z,15.27
2019-01-19T22:29:04.389Z,15.03
2019-01-19T22:31:38.825Z,15.50
2019-01-19T22:34:20.417Z,15.83
2019-01-19T22:36:55.109Z,15.53
2019-01-19T22:39:30.095Z,15.78
2019-01-19T22:42:05.249Z,16.23
2019-01-19T22:44:39.984Z,16.27
2019-01-19T22:47:21.525Z,15.73
2019-01-19T22:49:56.374Z,15.67
2019-01-19T22:52:32.088Z,16.15
2019-01-19T22:55:06.702Z,16.20
2019-01-19T22:57:48.410Z,16.67
2019-01-19T23:01:06.168Z,16.50
2019-01-19T23:03:49.981Z,16.50
2019-01-19T23:06:24.722Z,17.70
2019-01-19T23:08:59.971Z,17.57
2019-01-19T23:11:35.023Z,17.77
2019-01-19T23:14:10.718Z,17.17
2019-01-19T23:16:52.586Z,18.03
2019-01-19T23:19:27.271Z,19.40
2019-01-19T23:22:02.505Z,17.40
2019-01-19T23:24:36.924Z,19.23
2019-01-19T23:27:11.925Z,20.07
2019-01-19T23:29:54.428Z,19.67
2019-01-19T23:32:29.501Z,19.97
2019-01-19T23:35:11.171Z,19.30
2019-01-19T23:37:53.780Z,19.73
2019-01-19T23:40:36.065Z,20.67
2019-01-19T23:43:11.263Z,19.10
2019-01-19T23:45:46.028Z,20.07
2019-01-19T23:48:21.174Z,19.57
2019-01-19T23:50:55.877Z,20.00
2019-01-19T23:53:37.703Z,21.20
2019-01-19T23:56:12.152Z,20.90
2019-01-19T23:58:47.692Z,20.20
